createdAt,value
2018-08-13T00:00:50.539Z,0.00
2018-08-13T00:01:50.708Z,0.00
2018-08-13T00:02:50.894Z,0.00
2018-08-13T00:03:51.063Z,0.00
2018-08-13T00:04:51.259Z,0.00
2018-08-13T00:05:51.428Z,0.00
2018-08-13T00:06:51.591Z,0.00
2018-08-13T00:07:52.009Z,0.00
2018-08-13T00:08:51.953Z,0.00
2018-08-13T00:09:52.120Z,0.00
2018-08-13T00:10:52.287Z,0.00
2018-08-13T00:11:52.491Z,0.00
2018-08-13T00:12:52.664Z,0.00
2018-08-13T00:13:52.861Z,0.00
2018-08-13T00:14:53.018Z,0.00
2018-08-13T00:15:53.201Z,0.00
2018-08-13T00:16:53.390Z,0.00
2018-08-13T00:17:53.553Z,0.00
2018-08-13T00:18:53.730Z,0.00
2018-08-13T00:19:53.902Z,0.00
2018-08-13T00:20:54.078Z,0.00
2018-08-13T00:21:54.252Z,0.00
2018-08-13T00:22:54.424Z,0.00
2018-08-13T00:23:54.595Z,0.00
2018-08-13T00:24:54.771Z,0.00
2018-08-13T00:25:54.946Z,0.00
2018-08-13T00:26:55.139Z,0.00
2018-08-13T00:27:55.333Z,0.00
2018-08-13T00:28:55.485Z,0.00
2018-08-13T00:29:55.678Z,0.00
2018-08-13T00:30:55.846Z,0.00
2018-08-13T00:31:56.014Z,0.00
2018-08-13T00:32:56.193Z,0.00
2018-08-13T00:33:56.372Z,0.00
2018-08-13T00:34:56.570Z,0.00
2018-08-13T00:35:56.742Z,0.00
2018-08-13T00:36:56.912Z,0.00
2018-08-13T00:37:57.110Z,0.00
2018-08-13T00:38:57.275Z,0.00
2018-08-13T00:39:57.448Z,0.00
2018-08-13T00:40:57.633Z,0.00
2018-08-13T00:41:57.805Z,0.00
2018-08-13T00:42:57.986Z,0.00
2018-08-13T00:43:58.159Z,0.00
2018-08-13T00:44:58.593Z,0.00
2018-08-13T00:45:58.519Z,0.00
2018-08-13T00:46:58.696Z,0.00
2018-08-13T00:47:58.868Z,0.00
2018-08-13T00:48:59.033Z,0.00
2018-08-13T00:49:59.233Z,0.00
2018-08-13T00:50:59.405Z,0.00
2018-08-13T00:51:59.580Z,0.00
2018-08-13T00:52:59.757Z,0.00
2018-08-13T00:53:59.938Z,0.00
2018-08-13T00:55:00.113Z,0.00
2018-08-13T00:56:00.295Z,0.00
2018-08-13T00:57:00.477Z,0.00
2018-08-13T00:58:00.664Z,0.00
2018-08-13T00:59:00.835Z,0.00
2018-08-13T01:00:01.025Z,0.00
2018-08-13T01:01:01.217Z,0.00
2018-08-13T01:02:01.385Z,0.00
2018-08-13T01:03:01.556Z,0.00
2018-08-13T01:04:01.737Z,0.00
2018-08-13T01:05:01.922Z,0.00
2018-08-13T01:06:02.104Z,0.00
2018-08-13T01:07:02.275Z,0.00
2018-08-13T01:08:02.462Z,0.00
2018-08-13T01:09:02.640Z,0.00
2018-08-13T01:10:02.798Z,0.00
2018-08-13T01:11:02.970Z,0.00
2018-08-13T01:12:03.142Z,0.00
2018-08-13T01:13:03.312Z,0.00
2018-08-13T01:14:03.493Z,0.00
2018-08-13T01:15:03.659Z,0.00
2018-08-13T01:16:03.839Z,0.00
2018-08-13T01:17:04.035Z,0.00
2018-08-13T01:18:04.215Z,0.00
2018-08-13T01:19:04.415Z,0.00
2018-08-13T01:20:04.571Z,0.00
2018-08-13T01:21:04.758Z,0.00
2018-08-13T01:22:04.949Z,0.00
2018-08-13T01:23:05.118Z,0.00
2018-08-13T01:24:05.293Z,0.00
2018-08-13T01:25:05.483Z,0.00
2018-08-13T01:26:05.661Z,0.00
2018-08-13T01:27:05.837Z,0.00
2018-08-13T01:28:06.013Z,0.00
2018-08-13T01:29:06.172Z,0.00
2018-08-13T01:30:06.366Z,0.00
2018-08-13T01:31:06.536Z,0.00
2018-08-13T01:32:06.719Z,0.00
2018-08-13T01:33:06.916Z,0.00
2018-08-13T01:34:07.035Z,0.00
2018-08-13T01:35:07.212Z,0.00
2018-08-13T01:36:07.387Z,0.00
2018-08-13T01:37:07.576Z,0.00
2018-08-13T01:38:07.727Z,0.00
2018-08-13T01:39:07.902Z,0.00
2018-08-13T01:40:08.082Z,0.00
2018-08-13T01:41:08.260Z,0.00
2018-08-13T01:42:08.686Z,0.00
2018-08-13T01:43:08.621Z,0.00
2018-08-13T01:44:08.781Z,0.00
2018-08-13T01:45:08.946Z,0.00
2018-08-13T01:46:09.138Z,0.00
2018-08-13T01:47:09.317Z,0.00
2018-08-13T01:48:09.498Z,0.00
2018-08-13T01:49:09.686Z,0.00
2018-08-13T01:50:09.880Z,0.00
2018-08-13T01:51:10.048Z,0.00
2018-08-13T01:52:10.229Z,0.00
2018-08-13T01:53:10.403Z,0.00
2018-08-13T01:54:10.579Z,0.00
2018-08-13T01:55:10.758Z,0.00
2018-08-13T01:56:10.926Z,0.00
2018-08-13T01:57:11.091Z,0.00
2018-08-13T01:58:11.288Z,0.00
2018-08-13T01:59:11.418Z,0.00
2018-08-13T02:00:11.608Z,0.00
2018-08-13T02:01:11.804Z,0.00
2018-08-13T02:02:11.992Z,0.00
2018-08-13T02:03:12.171Z,0.00
2018-08-13T02:04:12.338Z,0.00
2018-08-13T02:05:12.520Z,0.00
2018-08-13T02:06:12.751Z,0.00
2018-08-13T02:07:12.899Z,0.00
2018-08-13T02:08:13.077Z,0.00
2018-08-13T02:09:13.244Z,0.00
2018-08-13T02:10:13.423Z,0.00
2018-08-13T02:11:13.601Z,0.00
2018-08-13T02:12:13.779Z,0.00
2018-08-13T02:13:13.956Z,0.00
2018-08-13T02:14:14.131Z,0.00
2018-08-13T02:15:14.302Z,0.00
2018-08-13T02:16:14.486Z,0.00
2018-08-13T02:17:14.646Z,0.00
2018-08-13T02:18:14.812Z,0.00
2018-08-13T02:19:15.021Z,0.00
2018-08-13T02:20:15.129Z,0.00
2018-08-13T02:21:15.333Z,0.00
2018-08-13T02:22:15.494Z,0.00
2018-08-13T02:23:15.670Z,0.00
2018-08-13T02:24:15.848Z,0.00
2018-08-13T02:25:16.033Z,0.00
2018-08-13T02:26:16.205Z,0.00
2018-08-13T02:27:16.390Z,0.00
2018-08-13T02:28:16.551Z,0.00
2018-08-13T02:29:16.723Z,0.00
2018-08-13T02:30:16.904Z,0.00
2018-08-13T02:31:17.078Z,0.00
2018-08-13T02:32:17.259Z,0.00
2018-08-13T02:33:17.428Z,0.00
2018-08-13T02:34:17.600Z,0.00
2018-08-13T02:35:17.786Z,0.00
2018-08-13T02:36:17.956Z,0.00
2018-08-13T02:37:18.133Z,0.00
2018-08-13T02:38:18.297Z,0.00
2018-08-13T02:39:18.507Z,0.00
2018-08-13T02:40:18.666Z,0.00
2018-08-13T02:41:18.837Z,0.00
2018-08-13T02:42:19.028Z,0.00
2018-08-13T02:43:19.184Z,0.00
2018-08-13T02:44:19.363Z,0.00
2018-08-13T02:45:19.532Z,0.00
2018-08-13T02:46:19.712Z,0.00
2018-08-13T02:47:19.868Z,0.00
2018-08-13T02:48:20.055Z,0.00
2018-08-13T02:49:20.240Z,0.00
2018-08-13T02:50:20.412Z,0.00
2018-08-13T02:51:20.574Z,0.00
2018-08-13T02:52:20.744Z,0.00
2018-08-13T02:53:20.917Z,0.00
2018-08-13T02:54:21.096Z,0.00
2018-08-13T02:55:21.285Z,0.00
2018-08-13T02:56:21.469Z,0.00
2018-08-13T02:57:21.649Z,0.00
2018-08-13T02:58:21.814Z,0.00
2018-08-13T02:59:22.266Z,0.00
2018-08-13T03:00:22.214Z,0.00
2018-08-13T03:01:22.380Z,0.00
2018-08-13T03:02:22.542Z,0.00
2018-08-13T03:03:22.721Z,0.00
2018-08-13T03:04:22.900Z,0.00
2018-08-13T03:05:23.064Z,0.00
2018-08-13T03:06:23.236Z,0.00
2018-08-13T03:07:23.417Z,0.00
2018-08-13T03:08:23.584Z,0.00
2018-08-13T03:09:23.747Z,0.00
2018-08-13T03:10:23.952Z,0.00
2018-08-13T03:11:24.101Z,0.00
2018-08-13T03:13:24.442Z,0.00
2018-08-13T03:14:24.617Z,0.00
2018-08-13T03:15:24.792Z,0.00
2018-08-13T03:16:24.966Z,0.00
2018-08-13T03:17:25.150Z,0.00
2018-08-13T03:18:25.328Z,0.00
2018-08-13T03:19:25.541Z,0.00
2018-08-13T03:20:25.692Z,0.00
2018-08-13T03:21:25.871Z,0.00
2018-08-13T03:22:26.044Z,0.00
2018-08-13T03:23:26.261Z,0.00
2018-08-13T03:24:26.437Z,0.00
2018-08-13T03:25:26.607Z,0.00
2018-08-13T03:26:26.780Z,0.00
2018-08-13T03:27:26.957Z,0.00
2018-08-13T03:28:27.131Z,0.00
2018-08-13T03:29:27.311Z,0.00
2018-08-13T03:30:27.503Z,0.00
2018-08-13T03:31:27.683Z,0.00
2018-08-13T03:32:27.848Z,0.00
2018-08-13T03:33:28.106Z,0.00
2018-08-13T03:34:28.210Z,0.00
2018-08-13T03:35:28.388Z,0.00
2018-08-13T03:36:28.586Z,0.00
2018-08-13T03:37:28.735Z,0.00
2018-08-13T03:38:28.895Z,0.00
2018-08-13T03:39:29.073Z,0.00
2018-08-13T03:40:29.259Z,0.00
2018-08-13T03:41:29.439Z,0.00
2018-08-13T03:42:29.622Z,0.00
2018-08-13T03:43:29.811Z,0.00
2018-08-13T03:44:29.968Z,0.00
2018-08-13T03:45:30.147Z,0.00
2018-08-13T03:46:30.337Z,0.00
2018-08-13T03:47:30.501Z,0.00
2018-08-13T03:48:30.685Z,5.63
2018-08-13T03:49:30.862Z,5.63
2018-08-13T03:50:31.040Z,11.25
2018-08-13T03:51:31.217Z,11.25
2018-08-13T03:52:31.377Z,11.25
2018-08-13T03:53:31.549Z,11.25
2018-08-13T03:54:31.769Z,11.25
2018-08-13T03:55:31.896Z,16.88
2018-08-13T03:56:32.070Z,16.88
2018-08-13T03:57:32.222Z,16.88
2018-08-13T03:58:32.401Z,22.50
2018-08-13T03:59:32.575Z,22.50
2018-08-13T04:00:32.752Z,22.50
2018-08-13T04:01:32.926Z,22.50
2018-08-13T04:02:33.119Z,22.50
2018-08-13T04:03:33.301Z,22.50
2018-08-13T04:04:33.470Z,22.50
2018-08-13T04:05:33.654Z,22.50
2018-08-13T04:06:33.864Z,22.50
2018-08-13T04:07:34.046Z,22.50
2018-08-13T04:08:34.230Z,28.13
2018-08-13T04:09:34.393Z,28.13
2018-08-13T04:10:34.563Z,33.75
2018-08-13T04:11:34.743Z,39.38
2018-08-13T04:12:34.912Z,39.38
2018-08-13T04:13:35.078Z,45.00
2018-08-13T04:14:35.268Z,50.63
2018-08-13T04:15:35.473Z,50.63
2018-08-13T04:16:35.622Z,56.25
2018-08-13T04:17:35.796Z,61.88
2018-08-13T04:18:35.975Z,61.88
2018-08-13T04:19:36.158Z,67.50
2018-08-13T04:20:36.358Z,67.50
2018-08-13T04:21:36.481Z,73.13
2018-08-13T04:22:36.677Z,78.75
2018-08-13T04:23:36.869Z,78.75
2018-08-13T04:24:37.027Z,78.75
2018-08-13T04:25:37.209Z,84.38
2018-08-13T04:26:37.371Z,90.00
2018-08-13T04:27:37.567Z,106.88
2018-08-13T04:28:37.724Z,118.13
2018-08-13T04:29:37.911Z,129.38
2018-08-13T04:30:38.083Z,135.00
2018-08-13T04:31:38.260Z,151.88
2018-08-13T04:32:38.462Z,157.50
2018-08-13T04:33:38.629Z,168.75
2018-08-13T04:34:38.799Z,180.00
2018-08-13T04:35:38.966Z,208.13
2018-08-13T04:36:39.158Z,281.25
2018-08-13T04:38:39.543Z,736.88
2018-08-13T04:39:39.704Z,900.00
2018-08-13T04:40:39.885Z,984.38
2018-08-13T04:41:40.029Z,950.63
2018-08-13T04:42:40.219Z,1125.00
2018-08-13T04:43:40.393Z,1293.75
2018-08-13T04:44:40.539Z,1344.38
2018-08-13T04:45:40.719Z,1141.88
2018-08-13T04:46:40.930Z,826.88
2018-08-13T04:47:41.082Z,776.25
2018-08-13T04:48:41.311Z,928.13
2018-08-13T04:49:41.495Z,1096.88
2018-08-13T04:50:41.712Z,1209.38
2018-08-13T04:51:41.849Z,1170.00
2018-08-13T04:52:42.010Z,973.13
2018-08-13T04:53:42.217Z,748.13
2018-08-13T04:54:42.389Z,618.75
2018-08-13T04:55:42.556Z,393.75
2018-08-13T04:56:42.738Z,275.63
2018-08-13T04:57:42.896Z,298.13
2018-08-13T04:58:43.100Z,354.38
2018-08-13T04:59:43.252Z,427.50
2018-08-13T05:00:43.438Z,579.38
2018-08-13T05:01:43.612Z,680.63
2018-08-13T05:02:43.826Z,720.00
2018-08-13T05:03:44.017Z,742.50
2018-08-13T05:04:44.173Z,731.25
2018-08-13T05:05:44.384Z,1130.63
2018-08-13T05:06:44.563Z,1687.50
2018-08-13T05:07:44.729Z,1850.63
2018-08-13T05:08:44.909Z,1794.38
2018-08-13T05:09:45.106Z,1777.50
2018-08-13T05:10:45.271Z,1935.00
2018-08-13T05:11:45.465Z,1923.75
2018-08-13T05:12:45.646Z,1507.50
2018-08-13T05:13:45.822Z,2013.75
2018-08-13T05:14:45.955Z,2745.00
2018-08-13T05:15:46.170Z,2745.00
2018-08-13T05:16:46.323Z,2874.38
2018-08-13T05:17:46.501Z,2587.50
2018-08-13T05:18:46.692Z,2896.88
2018-08-13T05:19:46.855Z,3003.75
2018-08-13T05:20:47.039Z,3003.75
2018-08-13T05:21:47.240Z,3031.88
2018-08-13T05:22:47.395Z,3105.00
2018-08-13T05:23:47.571Z,2992.50
2018-08-13T05:24:47.755Z,2908.13
2018-08-13T05:25:47.919Z,3116.25
2018-08-13T05:26:48.089Z,3144.38
2018-08-13T05:27:48.276Z,3172.50
2018-08-13T05:28:48.450Z,3211.88
2018-08-13T05:29:48.654Z,3223.13
2018-08-13T05:30:48.844Z,3116.25
2018-08-13T05:31:48.987Z,3228.75
2018-08-13T05:32:49.172Z,3251.25
2018-08-13T05:33:49.360Z,3307.50
2018-08-13T05:34:49.513Z,3341.25
2018-08-13T05:35:49.701Z,3307.50
2018-08-13T05:36:49.870Z,3099.38
2018-08-13T05:37:50.040Z,3093.75
2018-08-13T05:38:50.214Z,3150.00
2018-08-13T05:39:50.388Z,3256.88
2018-08-13T05:40:50.591Z,3228.75
2018-08-13T05:41:50.792Z,3318.75
2018-08-13T05:42:50.970Z,3391.88
2018-08-13T05:43:51.172Z,3391.88
2018-08-13T05:44:51.351Z,3369.38
2018-08-13T05:45:51.536Z,3273.75
2018-08-13T05:46:51.717Z,3346.88
2018-08-13T05:47:51.908Z,3420.00
2018-08-13T05:48:52.094Z,3391.88
2018-08-13T05:49:52.253Z,3335.63
2018-08-13T05:50:52.503Z,3296.25
2018-08-13T05:51:52.634Z,2340.00
2018-08-13T05:52:52.859Z,1524.38
2018-08-13T05:53:52.997Z,1299.38
2018-08-13T05:54:53.206Z,2598.75
2018-08-13T05:55:53.384Z,2553.75
2018-08-13T05:56:53.631Z,2306.25
2018-08-13T05:57:53.803Z,2941.88
2018-08-13T05:58:54.002Z,3065.63
2018-08-13T05:59:54.166Z,3189.38
2018-08-13T06:00:54.350Z,3285.00
2018-08-13T06:01:54.545Z,3110.63
2018-08-13T06:02:54.729Z,3099.38
2018-08-13T06:03:54.881Z,3065.63
2018-08-13T06:04:55.088Z,2891.25
2018-08-13T06:05:55.256Z,2947.50
2018-08-13T06:06:55.443Z,2885.63
2018-08-13T06:07:55.653Z,2756.25
2018-08-13T06:08:55.825Z,2531.25
2018-08-13T06:09:56.025Z,2570.63
2018-08-13T06:10:56.218Z,2300.63
2018-08-13T06:11:56.433Z,2536.88
2018-08-13T06:12:56.617Z,2452.50
2018-08-13T06:13:56.774Z,1873.13
2018-08-13T06:14:56.934Z,950.63
2018-08-13T06:15:57.146Z,1372.50
2018-08-13T06:16:57.320Z,1198.13
2018-08-13T06:17:57.501Z,1558.13
2018-08-13T06:18:57.703Z,1996.88
2018-08-13T06:19:57.881Z,2587.50
2018-08-13T06:20:58.072Z,2683.13
2018-08-13T06:21:58.255Z,2700.00
2018-08-13T06:22:58.467Z,2655.00
2018-08-13T06:23:58.628Z,1226.25
2018-08-13T06:24:58.836Z,2593.13
2018-08-13T06:25:59.002Z,2131.88
2018-08-13T06:26:59.188Z,832.50
2018-08-13T06:28:00.136Z,1186.88
2018-08-13T06:28:59.542Z,1175.63
2018-08-13T06:29:59.795Z,2283.75
2018-08-13T06:30:59.949Z,2390.63
2018-08-13T06:32:00.114Z,2536.88
2018-08-13T06:33:00.327Z,770.63
2018-08-13T06:34:00.556Z,382.50
2018-08-13T06:35:00.670Z,326.25
2018-08-13T06:36:00.889Z,315.00
2018-08-13T06:37:01.043Z,337.50
2018-08-13T06:38:01.217Z,376.88
2018-08-13T06:39:01.407Z,433.13
2018-08-13T06:40:01.654Z,483.75
2018-08-13T06:41:01.740Z,545.63
2018-08-13T06:42:01.918Z,1276.88
2018-08-13T06:43:02.114Z,793.13
2018-08-13T06:44:02.299Z,866.25
2018-08-13T06:45:02.497Z,720.00
2018-08-13T06:46:02.685Z,877.50
2018-08-13T06:47:02.890Z,961.88
2018-08-13T06:48:03.098Z,658.13
2018-08-13T06:49:03.279Z,708.75
2018-08-13T06:50:03.473Z,1130.63
2018-08-13T06:51:03.686Z,911.25
2018-08-13T06:52:03.898Z,832.50
2018-08-13T06:53:04.113Z,1603.13
2018-08-13T06:54:04.536Z,787.50
2018-08-13T06:55:04.461Z,871.88
2018-08-13T06:56:04.639Z,1760.63
2018-08-13T06:57:04.825Z,652.50
2018-08-13T06:58:05.036Z,641.25
2018-08-13T06:59:05.185Z,506.25
2018-08-13T07:00:05.388Z,388.13
2018-08-13T07:01:05.553Z,331.88
2018-08-13T07:02:05.743Z,298.13
2018-08-13T07:03:05.909Z,264.38
2018-08-13T07:04:06.720Z,236.25
2018-08-13T07:05:06.269Z,213.75
2018-08-13T07:06:06.476Z,196.88
2018-08-13T07:07:06.636Z,180.00
2018-08-13T07:08:06.834Z,163.13
2018-08-13T07:09:07.017Z,151.88
2018-08-13T07:10:07.224Z,151.88
2018-08-13T07:11:07.392Z,157.50
2018-08-13T07:12:07.600Z,196.88
2018-08-13T07:13:07.805Z,174.38
2018-08-13T07:14:07.977Z,157.50
2018-08-13T07:15:08.178Z,151.88
2018-08-13T07:18:40.671Z,798.75
2018-08-13T07:19:40.833Z,275.63
2018-08-13T07:20:41.014Z,247.50
2018-08-13T07:21:42.101Z,225.00
2018-08-13T07:22:41.393Z,180.00
2018-08-13T07:23:41.565Z,157.50
2018-08-13T07:24:41.901Z,135.00
2018-08-13T07:25:41.974Z,123.75
2018-08-13T07:26:42.158Z,112.50
2018-08-13T07:27:42.384Z,106.88
2018-08-13T07:28:42.530Z,101.25
2018-08-13T07:29:42.719Z,90.00
2018-08-13T07:30:42.926Z,78.75
2018-08-13T07:31:43.091Z,67.50
2018-08-13T07:32:43.275Z,61.88
2018-08-13T07:33:43.452Z,56.25
2018-08-13T07:34:43.627Z,45.00
2018-08-13T07:35:43.810Z,39.38
2018-08-13T07:36:43.985Z,39.38
2018-08-13T07:37:44.171Z,33.75
2018-08-13T07:38:44.371Z,28.13
2018-08-13T07:39:44.551Z,28.13
2018-08-13T07:40:44.736Z,33.75
2018-08-13T07:41:44.925Z,33.75
2018-08-13T07:42:45.104Z,39.38
2018-08-13T07:43:45.292Z,39.38
2018-08-13T07:44:45.477Z,39.38
2018-08-13T07:45:45.803Z,45.00
2018-08-13T07:46:45.842Z,45.00
2018-08-13T07:47:46.028Z,45.00
2018-08-13T07:48:46.226Z,45.00
2018-08-13T07:49:46.430Z,45.00
2018-08-13T07:50:46.603Z,45.00
2018-08-13T07:51:46.887Z,50.63
2018-08-13T07:52:46.974Z,50.63
2018-08-13T07:53:47.161Z,50.63
2018-08-13T07:54:47.351Z,56.25
2018-08-13T07:55:47.538Z,61.88
2018-08-13T07:56:47.743Z,61.88
2018-08-13T07:57:47.906Z,67.50
2018-08-13T07:58:48.095Z,73.13
2018-08-13T08:00:48.458Z,78.75
2018-08-13T08:01:48.638Z,84.38
2018-08-13T08:02:48.827Z,84.38
2018-08-13T08:03:49.010Z,84.38
2018-08-13T08:04:49.210Z,84.38
2018-08-13T08:05:49.372Z,78.75
2018-08-13T08:06:49.578Z,78.75
2018-08-13T08:07:49.744Z,73.13
2018-08-13T08:08:49.914Z,73.13
2018-08-13T08:09:50.096Z,73.13
2018-08-13T08:10:50.279Z,73.13
2018-08-13T08:11:50.462Z,73.13
2018-08-13T08:12:50.640Z,78.75
2018-08-13T08:13:50.829Z,78.75
2018-08-13T08:14:51.077Z,78.75
2018-08-13T08:15:51.200Z,78.75
2018-08-13T08:16:51.378Z,78.75
2018-08-13T08:17:51.556Z,78.75
2018-08-13T08:18:51.749Z,84.38
2018-08-13T08:19:51.939Z,84.38
2018-08-13T08:20:52.103Z,90.00
2018-08-13T08:21:52.287Z,90.00
2018-08-13T08:22:52.461Z,90.00
2018-08-13T08:23:52.652Z,95.63
2018-08-13T08:24:52.826Z,101.25
2018-08-13T08:25:53.938Z,106.88
2018-08-13T08:26:53.258Z,112.50
2018-08-13T08:27:53.450Z,118.13
2018-08-13T08:28:53.631Z,123.75
2018-08-13T08:29:53.804Z,129.38
2018-08-13T08:30:53.991Z,129.38
2018-08-13T08:31:54.179Z,123.75
2018-08-13T08:32:54.357Z,123.75
2018-08-13T08:33:54.531Z,123.75
2018-08-13T08:34:54.720Z,118.13
2018-08-13T08:35:54.923Z,118.13
2018-08-13T08:36:55.102Z,118.13
2018-08-13T08:37:55.277Z,118.13
2018-08-13T08:38:55.445Z,118.13
2018-08-13T08:39:55.642Z,118.13
2018-08-13T08:40:55.897Z,118.13
2018-08-13T08:41:56.011Z,123.75
2018-08-13T08:42:56.187Z,129.38
2018-08-13T08:43:56.417Z,135.00
2018-08-13T08:44:56.553Z,135.00
2018-08-13T08:45:56.789Z,135.00
2018-08-13T08:46:56.912Z,135.00
2018-08-13T08:47:57.100Z,135.00
2018-08-13T08:48:57.279Z,135.00
2018-08-13T08:49:57.480Z,129.38
2018-08-13T08:50:57.672Z,129.38
2018-08-13T08:51:57.824Z,135.00
2018-08-13T08:52:58.012Z,135.00
2018-08-13T08:53:58.196Z,140.63
2018-08-13T08:54:58.372Z,146.25
2018-08-13T08:55:58.551Z,157.50
2018-08-13T08:56:58.732Z,163.13
2018-08-13T08:57:58.942Z,168.75
2018-08-13T08:58:59.117Z,174.38
2018-08-13T08:59:59.280Z,174.38
2018-08-13T09:00:59.456Z,174.38
2018-08-13T09:01:59.648Z,174.38
2018-08-13T09:02:59.833Z,180.00
2018-08-13T09:04:00.034Z,180.00
2018-08-13T09:05:00.200Z,180.00
2018-08-13T09:06:00.444Z,174.38
2018-08-13T09:07:00.568Z,168.75
2018-08-13T09:08:00.747Z,157.50
2018-08-13T09:09:00.911Z,151.88
2018-08-13T09:10:01.090Z,140.63
2018-08-13T09:11:01.277Z,135.00
2018-08-13T09:12:01.463Z,129.38
2018-08-13T09:13:01.646Z,129.38
2018-08-13T09:14:01.882Z,129.38
2018-08-13T09:15:02.243Z,135.00
2018-08-13T09:16:02.182Z,146.25
2018-08-13T09:17:02.366Z,151.88
2018-08-13T09:18:02.557Z,157.50
2018-08-13T09:19:02.737Z,163.13
2018-08-13T09:20:02.907Z,163.13
2018-08-13T09:21:03.087Z,163.13
2018-08-13T09:22:03.270Z,163.13
2018-08-13T09:23:03.458Z,151.88
2018-08-13T09:24:03.641Z,146.25
2018-08-13T09:25:03.811Z,140.63
2018-08-13T09:26:03.988Z,129.38
2018-08-13T09:27:04.177Z,123.75
2018-08-13T09:28:04.341Z,123.75
2018-08-13T09:29:04.524Z,123.75
2018-08-13T09:30:04.714Z,123.75
2018-08-13T09:31:04.872Z,123.75
2018-08-13T09:32:05.050Z,123.75
2018-08-13T09:33:05.234Z,123.75
2018-08-13T09:34:05.414Z,123.75
2018-08-13T09:35:05.588Z,123.75
2018-08-13T09:36:05.769Z,129.38
2018-08-13T09:37:05.951Z,129.38
2018-08-13T09:38:06.133Z,135.00
2018-08-13T09:39:06.322Z,135.00
2018-08-13T09:40:06.505Z,140.63
2018-08-13T09:41:06.693Z,146.25
2018-08-13T09:42:06.886Z,151.88
2018-08-13T09:43:07.057Z,151.88
2018-08-13T09:44:07.283Z,151.88
2018-08-13T09:45:07.439Z,146.25
2018-08-13T09:46:07.628Z,140.63
2018-08-13T09:47:07.803Z,135.00
2018-08-13T09:48:08.013Z,140.63
2018-08-13T09:49:08.172Z,146.25
2018-08-13T09:50:08.331Z,146.25
2018-08-13T09:51:08.490Z,151.88
2018-08-13T09:52:08.687Z,151.88
2018-08-13T09:53:08.829Z,151.88
2018-08-13T09:54:09.019Z,146.25
2018-08-13T09:55:09.205Z,146.25
2018-08-13T09:56:09.385Z,146.25
2018-08-13T09:57:09.564Z,140.63
2018-08-13T09:58:09.730Z,146.25
2018-08-13T09:59:09.908Z,140.63
2018-08-13T10:00:10.096Z,135.00
2018-08-13T10:01:10.267Z,129.38
2018-08-13T10:02:10.459Z,123.75
2018-08-13T10:03:10.635Z,118.13
2018-08-13T10:04:10.838Z,118.13
2018-08-13T10:05:11.008Z,118.13
2018-08-13T10:06:11.191Z,106.88
2018-08-13T10:07:11.365Z,95.63
2018-08-13T10:08:11.538Z,84.38
2018-08-13T10:09:11.743Z,84.38
2018-08-13T10:10:11.896Z,90.00
2018-08-13T10:11:12.099Z,90.00
2018-08-13T10:12:12.255Z,90.00
2018-08-13T10:13:12.422Z,90.00
2018-08-13T10:14:12.597Z,90.00
2018-08-13T10:15:12.782Z,90.00
2018-08-13T10:16:12.954Z,95.63
2018-08-13T10:17:13.140Z,101.25
2018-08-13T10:18:13.323Z,106.88
2018-08-13T10:19:13.486Z,118.13
2018-08-13T10:20:13.681Z,118.13
2018-08-13T10:21:13.866Z,123.75
2018-08-13T10:22:14.045Z,123.75
2018-08-13T10:23:14.231Z,129.38
2018-08-13T10:24:14.414Z,140.63
2018-08-13T10:25:14.589Z,146.25
2018-08-13T10:26:15.017Z,146.25
2018-08-13T10:27:14.950Z,146.25
2018-08-13T10:28:15.135Z,140.63
2018-08-13T10:29:15.333Z,140.63
2018-08-13T10:30:15.505Z,146.25
2018-08-13T10:31:15.696Z,157.50
2018-08-13T10:32:15.884Z,157.50
2018-08-13T10:33:16.052Z,163.13
2018-08-13T10:34:16.234Z,163.13
2018-08-13T10:35:16.408Z,163.13
2018-08-13T10:36:16.602Z,163.13
2018-08-13T10:37:17.691Z,168.75
2018-08-13T10:38:16.955Z,174.38
2018-08-13T10:39:17.114Z,174.38
2018-08-13T10:40:17.301Z,168.75
2018-08-13T10:41:17.480Z,168.75
2018-08-13T10:42:17.659Z,163.13
2018-08-13T10:43:17.852Z,163.13
2018-08-13T10:44:18.037Z,163.13
2018-08-13T10:45:18.208Z,168.75
2018-08-13T10:46:18.418Z,174.38
2018-08-13T10:47:18.578Z,180.00
2018-08-13T10:48:18.763Z,185.63
2018-08-13T10:49:18.951Z,185.63
2018-08-13T10:50:19.120Z,180.00
2018-08-13T10:51:19.330Z,174.38
2018-08-13T10:52:19.503Z,163.13
2018-08-13T10:53:19.685Z,157.50
2018-08-13T10:54:19.874Z,157.50
2018-08-13T10:55:20.025Z,163.13
2018-08-13T10:56:20.189Z,163.13
2018-08-13T10:57:20.377Z,151.88
2018-08-13T10:58:20.527Z,140.63
2018-08-13T10:59:20.731Z,140.63
2018-08-13T11:00:20.891Z,151.88
2018-08-13T11:01:21.145Z,168.75
2018-08-13T11:02:21.237Z,174.38
2018-08-13T11:03:21.415Z,180.00
2018-08-13T11:04:21.625Z,180.00
2018-08-13T11:05:21.786Z,180.00
2018-08-13T11:06:21.973Z,185.63
2018-08-13T11:07:22.155Z,185.63
2018-08-13T11:08:22.323Z,185.63
2018-08-13T11:09:22.517Z,180.00
2018-08-13T11:10:23.067Z,180.00
2018-08-13T11:11:22.867Z,174.38
2018-08-13T11:12:23.055Z,180.00
2018-08-13T11:13:23.269Z,185.63
2018-08-13T11:14:23.413Z,191.25
2018-08-13T11:15:23.615Z,196.88
2018-08-13T11:16:23.784Z,208.13
2018-08-13T11:17:23.960Z,213.75
2018-08-13T11:18:24.140Z,213.75
2018-08-13T11:19:24.315Z,225.00
2018-08-13T11:20:24.500Z,236.25
2018-08-13T11:21:24.675Z,241.88
2018-08-13T11:22:24.852Z,247.50
2018-08-13T11:23:25.028Z,253.13
2018-08-13T11:24:25.214Z,258.75
2018-08-13T11:25:25.413Z,264.38
2018-08-13T11:26:25.633Z,270.00
2018-08-13T11:27:25.697Z,275.63
2018-08-13T11:28:25.966Z,275.63
2018-08-13T11:29:26.151Z,275.63
2018-08-13T11:30:26.317Z,275.63
2018-08-13T11:31:26.568Z,275.63
2018-08-13T11:32:26.702Z,270.00
2018-08-13T11:33:26.882Z,270.00
2018-08-13T11:34:27.166Z,264.38
2018-08-13T11:35:27.265Z,258.75
2018-08-13T11:36:27.495Z,253.13
2018-08-13T11:37:27.590Z,247.50
2018-08-13T11:38:27.813Z,241.88
2018-08-13T11:39:29.824Z,236.25
2018-08-13T11:40:28.238Z,230.63
2018-08-13T11:41:28.645Z,230.63
2018-08-13T11:42:28.577Z,225.00
2018-08-13T11:43:28.810Z,225.00
2018-08-13T11:44:28.935Z,225.00
2018-08-13T11:45:29.159Z,219.38
2018-08-13T11:46:29.479Z,219.38
2018-08-13T11:47:29.527Z,219.38
2018-08-13T11:48:29.723Z,213.75
2018-08-13T11:49:29.865Z,213.75
2018-08-13T11:50:30.052Z,213.75
2018-08-13T11:51:30.254Z,213.75
2018-08-13T11:52:30.455Z,219.38
2018-08-13T11:53:30.623Z,213.75
2018-08-13T11:54:30.785Z,213.75
2018-08-13T11:55:30.969Z,213.75
2018-08-13T11:56:31.266Z,213.75
2018-08-13T11:57:31.304Z,213.75
2018-08-13T11:58:31.491Z,213.75
2018-08-13T11:59:31.654Z,213.75
2018-08-13T12:00:31.837Z,213.75
2018-08-13T12:01:32.030Z,213.75
2018-08-13T12:02:32.244Z,213.75
2018-08-13T12:03:32.394Z,208.13
2018-08-13T12:04:32.567Z,208.13
2018-08-13T12:05:32.827Z,202.50
2018-08-13T12:06:32.899Z,202.50
2018-08-13T12:07:33.113Z,196.88
2018-08-13T12:08:33.552Z,196.88
2018-08-13T12:09:33.431Z,196.88
2018-08-13T12:10:33.632Z,196.88
2018-08-13T12:11:33.810Z,196.88
2018-08-13T12:12:33.987Z,196.88
2018-08-13T12:13:34.133Z,196.88
2018-08-13T12:14:34.324Z,196.88
2018-08-13T12:15:34.484Z,196.88
2018-08-13T12:16:34.657Z,202.50
2018-08-13T12:17:35.802Z,202.50
2018-08-13T12:18:34.964Z,208.13
2018-08-13T12:19:35.177Z,213.75
2018-08-13T12:20:35.352Z,213.75
2018-08-13T12:21:35.540Z,225.00
2018-08-13T12:22:35.725Z,225.00
2018-08-13T12:23:35.914Z,225.00
2018-08-13T12:24:36.124Z,225.00
2018-08-13T12:25:36.283Z,225.00
2018-08-13T12:26:36.485Z,219.38
2018-08-13T12:27:36.626Z,219.38
2018-08-13T12:28:36.800Z,219.38
2018-08-13T12:29:36.971Z,219.38
2018-08-13T12:30:37.191Z,225.00
2018-08-13T12:31:37.348Z,230.63
2018-08-13T12:32:37.536Z,241.88
2018-08-13T12:33:37.719Z,241.88
2018-08-13T12:34:37.888Z,258.75
2018-08-13T12:35:38.115Z,270.00
2018-08-13T12:36:38.314Z,286.88
2018-08-13T12:37:38.460Z,303.75
2018-08-13T12:38:38.618Z,315.00
2018-08-13T12:39:38.851Z,337.50
2018-08-13T12:40:39.056Z,354.38
2018-08-13T12:41:39.267Z,376.88
2018-08-13T12:42:39.444Z,399.38
2018-08-13T12:43:39.637Z,416.25
2018-08-13T12:44:39.812Z,421.88
2018-08-13T12:45:40.205Z,410.63
2018-08-13T12:46:40.250Z,405.00
2018-08-13T12:47:40.411Z,405.00
2018-08-13T12:48:40.587Z,410.63
2018-08-13T12:49:40.772Z,421.88
2018-08-13T12:50:40.968Z,421.88